Time;durP1;ratioP1;P1;durP2;ratioP2;P2;SDS_P1;SDS_P2;PMS_P1;PMS_P2;Temp;Humidity;BMP_temperature;BMP_pressure;BME280_temperature;BME280_humidity;BME280_pressure;Samples;Min_cycle;Max_cycle;Signal;HPM_P1;HPM_P2
2021/07/25 00:00:55;;;;;;;8.88;7.97;;;20.50;66.40;;;;;;5065235;28;20472;-81
2021/07/25 00:03:21;;;;;;;9.85;7.80;;;20.50;66.50;;;;;;5064666;28;20047;-81
2021/07/25 00:05:47;;;;;;;8.35;7.50;;;20.40;66.30;;;;;;5081794;28;20433;-80
2021/07/25 00:08:13;;;;;;;8.30;7.22;;;20.50;66.50;;;;;;5066489;28;20139;-81
2021/07/25 00:10:56;;;;;;;9.02;8.10;;;20.40;66.40;;;;;;5064393;28;20111;-80
2021/07/25 00:13:23;;;;;;;9.45;8.05;;;20.40;66.40;;;;;;5064742;28;20032;-81
2021/07/25 00:15:49;;;;;;;11.25;7.28;;;20.40;66.40;;;;;;5064484;28;20482;-80
2021/07/25 00:18:15;;;;;;;8.27;7.47;;;20.40;66.40;;;;;;5065778;28;20066;-80
2021/07/25 00:20:41;;;;;;;9.07;8.27;;;20.40;66.40;;;;;;5066201;28;20165;-79
2021/07/25 00:23:07;;;;;;;8.25;7.45;;;20.40;66.40;;;;;;5064605;28;20025;-79
2021/07/25 00:25:35;;;;;;;8.23;7.15;;;20.40;66.40;;;;;;5066047;28;20020;-79
2021/07/25 00:28:01;;;;;;;10.52;8.07;;;20.30;66.30;;;;;;5081808;28;20036;-80
2021/07/25 00:30:27;;;;;;;14.05;8.15;;;20.30;66.30;;;;;;5066031;28;20044;-79
2021/07/25 00:32:54;;;;;;;8.05;7.35;;;20.30;66.30;;;;;;5064702;28;20036;-79
2021/07/25 00:35:20;;;;;;;8.85;7.95;;;20.30;66.40;;;;;;5066055;28;20084;-79
2021/07/25 00:37:47;;;;;;;8.65;7.82;;;20.30;66.40;;;;;;5069791;28;20078;-79
2021/07/25 00:40:29;;;;;;;8.75;7.85;;;20.20;66.20;;;;;;5069365;28;20033;-78
2021/07/25 00:42:55;;;;;;;10.13;8.18;;;20.30;66.50;;;;;;5069815;28;20051;-79
2021/07/25 00:45:21;;;;;;;8.93;8.05;;;20.20;66.30;;;;;;5068245;28;20436;-80
2021/07/25 00:47:47;;;;;;;13.25;8.30;;;20.10;66.10;;;;;;5069123;28;20071;-80
2021/07/25 00:50:14;;;;;;;8.88;8.02;;;20.20;66.30;;;;;;5070054;28;20059;-80
2021/07/25 00:52:41;;;;;;;8.90;8.18;;;20.10;66.20;;;;;;5070689;28;20036;-79
2021/07/25 00:55:07;;;;;;;8.60;7.80;;;20.10;66.20;;;;;;5069121;28;20484;-80
2021/07/25 00:57:33;;;;;;;8.60;7.80;;;20.10;66.20;;;;;;5069871;28;20474;-80
2021/07/25 00:59:59;;;;;;;9.13;7.30;;;20.10;66.30;;;;;;5068503;28;20063;-80
2021/07/25 01:02:32;;;;;;;8.57;7.30;;;20.00;66.10;;;;;;5068410;28;20150;-79
2021/07/25 01:05:16;;;;;;;8.40;7.05;;;20.00;66.10;;;;;;5069352;28;20404;-79
2021/07/25 01:08:07;;;;;;;8.32;7.53;;;20.00;66.20;;;;;;5068291;28;20040;-80
2021/07/25 01:10:34;;;;;;;8.32;7.53;;;20.00;66.20;;;;;;5069290;28;20021;-79
2021/07/25 01:13:15;;;;;;;9.02;8.13;;;20.00;66.10;;;;;;5068382;28;20543;-79
2021/07/25 01:15:42;;;;;;;8.80;7.93;;;20.00;66.30;;;;;;5069746;28;20110;-79
2021/07/25 01:18:08;;;;;;;9.60;8.55;;;20.00;66.20;;;;;;5068754;28;20025;-79
2021/07/25 01:20:34;;;;;;;8.80;7.82;;;19.90;66.00;;;;;;5067916;28;20439;-79
2021/07/25 01:23:01;;;;;;;8.50;7.68;;;19.90;66.20;;;;;;5067921;28;20527;-80
2021/07/25 01:25:28;;;;;;;9.15;7.88;;;19.90;66.20;;;;;;5069603;28;20467;-80
2021/07/25 01:28:20;;;;;;;10.25;7.88;;;19.90;66.20;;;;;;5069325;28;20545;-81
2021/07/25 01:31:10;;;;;;;9.00;8.10;;;19.80;66.10;;;;;;5079198;28;20078;-80
2021/07/25 01:33:38;;;;;;;9.48;8.27;;;19.90;66.30;;;;;;5069130;28;20049;-78
2021/07/25 01:36:04;;;;;;;10.40;7.57;;;19.80;66.10;;;;;;5070184;28;20028;-80
2021/07/25 01:38:31;;;;;;;9.40;8.55;;;19.80;66.10;;;;;;5069729;28;20032;-78
2021/07/25 01:41:01;;;;;;;8.73;7.90;;;19.80;66.20;;;;;;5069252;28;20032;-78
2021/07/25 01:43:27;;;;;;;11.57;8.45;;;19.80;66.20;;;;;;5070477;28;20040;-78
2021/07/25 01:45:54;;;;;;;8.60;7.53;;;19.80;66.20;;;;;;5070728;28;20075;-79
2021/07/25 01:48:19;;;;;;;8.57;7.57;;;19.80;66.30;;;;;;5072718;28;20024;-79
2021/07/25 01:50:45;;;;;;;10.90;8.07;;;19.70;66.10;;;;;;5073742;28;20078;-79
2021/07/25 01:53:12;;;;;;;9.50;8.60;;;19.70;66.10;;;;;;5073068;28;20058;-78
2021/07/25 01:55:37;;;;;;;9.52;7.75;;;19.70;66.10;;;;;;5072964;28;20508;-78
2021/07/25 01:58:03;;;;;;;9.85;8.40;;;19.70;66.10;;;;;;5073158;28;20067;-79
2021/07/25 02:00:29;;;;;;;9.32;8.32;;;19.70;66.20;;;;;;5073196;28;20063;-79
2021/07/25 02:02:55;;;;;;;9.00;8.10;;;19.60;66.00;;;;;;5076861;28;20025;-79
2021/07/25 02:05:21;;;;;;;9.20;8.32;;;19.60;66.10;;;;;;5080278;28;20044;-79
2021/07/25 02:07:47;;;;;;;9.70;8.80;;;19.60;66.10;;;;;;5079698;28;20072;-79
2021/07/25 02:10:13;;;;;;;10.15;8.38;;;19.60;66.10;;;;;;5080066;28;20052;-79
2021/07/25 02:12:40;;;;;;;9.95;8.90;;;19.60;66.20;;;;;;5078975;28;20024;-79
2021/07/25 02:15:06;;;;;;;9.57;8.57;;;19.60;66.20;;;;;;5078448;28;20041;-79
2021/07/25 02:17:32;;;;;;;10.32;9.13;;;19.60;66.20;;;;;;5079462;28;20025;-79
2021/07/25 02:19:58;;;;;;;8.35;7.47;;;19.60;66.20;;;;;;5078320;28;20116;-81
2021/07/25 02:22:24;;;;;;;8.93;8.02;;;19.50;66.10;;;;;;5078531;28;20032;-80
2021/07/25 02:24:50;;;;;;;9.40;8.52;;;19.60;66.30;;;;;;5078136;28;20055;-81
2021/07/25 02:27:16;;;;;;;12.00;8.70;;;19.60;66.90;;;;;;5077212;28;20085;-81
2021/07/25 02:29:42;;;;;;;10.07;9.13;;;19.50;66.10;;;;;;5079136;28;20064;-80
2021/07/25 02:32:08;;;;;;;9.35;8.45;;;19.50;66.20;;;;;;5079519;28;20198;-80
2021/07/25 02:34:34;;;;;;;9.80;8.38;;;19.50;66.20;;;;;;5079486;28;20055;-80
2021/07/25 02:37:00;;;;;;;10.38;8.45;;;19.50;66.20;;;;;;5079488;28;20093;-80
2021/07/25 02:39:26;;;;;;;10.73;9.40;;;19.50;66.30;;;;;;5079962;28;20059;-79
2021/07/25 02:41:52;;;;;;;10.68;9.32;;;19.50;66.30;;;;;;5086955;28;20110;-79
2021/07/25 02:44:18;;;;;;;11.00;9.35;;;19.50;66.30;;;;;;5087389;28;20042;-79
2021/07/25 02:46:44;;;;;;;9.00;8.20;;;19.40;66.10;;;;;;5086274;28;20060;-80
2021/07/25 02:49:10;;;;;;;9.95;8.95;;;19.50;66.30;;;;;;5082769;28;20040;-79
2021/07/25 02:51:36;;;;;;;11.05;9.30;;;19.40;66.10;;;;;;5079078;28;20430;-79
2021/07/25 02:54:02;;;;;;;9.98;8.98;;;19.40;66.70;;;;;;5077519;28;20036;-79
2021/07/25 02:56:28;;;;;;;10.57;9.45;;;19.40;66.20;;;;;;5081129;28;20028;-79
2021/07/25 02:58:54;;;;;;;9.90;9.10;;;19.40;66.20;;;;;;5091681;28;20100;-79
2021/07/25 03:01:20;;;;;;;10.77;9.68;;;19.40;66.20;;;;;;5091459;28;20028;-78
2021/07/25 03:03:46;;;;;;;9.43;8.45;;;19.40;66.30;;;;;;5091336;28;20024;-79
2021/07/25 03:06:12;;;;;;;10.35;9.18;;;19.30;66.10;;;;;;5089078;28;20375;-80
2021/07/25 03:08:38;;;;;;;10.85;9.05;;;19.30;66.10;;;;;;5077444;28;20040;-80
2021/07/25 03:11:08;;;;;;;9.80;8.82;;;19.30;66.20;;;;;;5077158;28;20030;-80
2021/07/25 03:13:35;;;;;;;13.70;9.32;;;19.30;66.20;;;;;;5073193;28;20036;-80
2021/07/25 03:16:02;;;;;;;10.57;8.98;;;19.30;66.20;;;;;;5073604;28;20532;-80
2021/07/25 03:18:28;;;;;;;10.57;9.63;;;19.30;66.30;;;;;;5073303;28;20119;-81
2021/07/25 03:20:55;;;;;;;10.18;9.27;;;19.20;66.20;;;;;;5072955;28;20029;-80
2021/07/25 03:23:20;;;;;;;12.63;9.43;;;19.20;66.20;;;;;;5073025;28;20032;-80
2021/07/25 03:25:46;;;;;;;10.52;9.45;;;19.20;66.20;;;;;;5067168;28;20081;-80
2021/07/25 03:28:12;;;;;;;14.07;9.43;;;19.20;66.20;;;;;;5066925;28;20239;-80
2021/07/25 03:30:39;;;;;;;12.05;9.80;;;19.10;66.10;;;;;;5067679;28;20735;-80
2021/07/25 03:33:05;;;;;;;11.90;9.20;;;19.10;66.10;;;;;;5051591;28;20035;-79
2021/07/25 03:35:31;;;;;;;10.27;8.48;;;19.10;66.10;;;;;;5052415;28;20029;-80
2021/07/25 03:37:57;;;;;;;11.35;9.27;;;19.10;66.10;;;;;;5081963;28;20036;-81
2021/07/25 03:40:27;;;;;;;10.38;9.38;;;19.10;66.20;;;;;;5051484;28;20415;-80
2021/07/25 03:42:53;;;;;;;12.50;9.88;;;19.10;66.20;;;;;;5051322;28;20029;-81
2021/07/25 03:45:19;;;;;;;10.55;9.00;;;19.00;66.00;;;;;;5071554;28;20123;-79
2021/07/25 03:47:45;;;;;;;11.02;9.93;;;19.00;66.10;;;;;;5056708;28;20021;-79
2021/07/25 03:50:11;;;;;;;10.07;8.60;;;19.00;66.10;;;;;;5053289;28;20115;-80
2021/07/25 03:52:37;;;;;;;11.38;9.73;;;19.00;66.20;;;;;;5059759;28;20033;-78
2021/07/25 03:55:05;;;;;;;10.73;9.63;;;19.00;66.20;;;;;;5074820;28;20128;-80
2021/07/25 03:57:35;;;;;;;10.70;9.57;;;19.00;66.80;;;;;;5053021;28;20052;-80
2021/07/25 04:00:05;;;;;;;10.38;9.02;;;19.00;66.30;;;;;;5057170;28;20025;-80
2021/07/25 04:02:32;;;;;;;11.10;10.00;;;19.00;66.20;;;;;;5050694;28;20500;-79
2021/07/25 04:04:58;;;;;;;10.52;9.45;;;19.00;66.20;;;;;;5049236;28;20119;-78
2021/07/25 04:07:24;;;;;;;10.98;9.90;;;19.00;66.20;;;;;;5050674;28;20124;-79
2021/07/25 04:09:50;;;;;;;10.15;9.13;;;19.00;66.30;;;;;;5049694;28;20392;-80
2021/07/25 04:12:16;;;;;;;11.02;9.90;;;19.00;66.30;;;;;;5050349;28;20527;-80
2021/07/25 04:14:42;;;;;;;10.88;9.77;;;19.00;66.40;;;;;;5050511;28;20488;-79
2021/07/25 04:17:08;;;;;;;11.18;10.05;;;18.90;66.20;;;;;;5066157;28;20546;-80
2021/07/25 04:19:34;;;;;;;10.68;9.57;;;19.00;66.40;;;;;;5050499;28;20324;-81
2021/07/25 04:22:00;;;;;;;13.98;10.48;;;19.00;66.40;;;;;;5066018;28;20078;-80
2021/07/25 04:24:26;;;;;;;9.57;8.70;;;19.00;66.50;;;;;;5065938;28;20035;-81
2021/07/25 04:26:53;;;;;;;11.45;10.10;;;18.90;66.30;;;;;;5050780;28;20120;-81
2021/07/25 04:29:19;;;;;;;12.32;10.82;;;18.90;66.30;;;;;;5066241;28;20029;-82
2021/07/25 04:31:46;;;;;;;10.32;9.32;;;18.90;66.30;;;;;;5050574;28;20025;-80
2021/07/25 04:34:12;;;;;;;10.82;9.73;;;18.90;66.30;;;;;;5050444;28;20066;-80
2021/07/25 04:36:39;;;;;;;11.82;10.57;;;18.90;66.30;;;;;;5065816;28;20029;-80
2021/07/25 04:39:10;;;;;;;10.68;9.68;;;18.90;66.40;;;;;;5050530;28;20033;-80
2021/07/25 04:41:49;;;;;;;13.20;11.15;;;18.90;66.40;;;;;;5050300;28;20485;-80
2021/07/25 04:44:28;;;;;;;12.25;10.05;;;18.90;66.40;;;;;;5050865;28;20075;-80
2021/07/25 04:47:01;;;;;;;11.40;9.93;;;18.80;66.20;;;;;;5065053;28;20032;-81
2021/07/25 04:49:39;;;;;;;12.30;11.10;;;18.80;66.20;;;;;;5047140;28;20090;-80
2021/07/25 04:52:10;;;;;;;12.05;10.75;;;18.90;66.40;;;;;;5047503;28;20071;-80
2021/07/25 04:54:38;;;;;;;13.90;10.95;;;18.80;66.20;;;;;;5047368;28;20098;-81
2021/07/25 04:57:05;;;;;;;12.25;10.30;;;18.80;66.20;;;;;;5049498;28;20029;-81
2021/07/25 04:59:48;;;;;;;12.32;10.98;;;18.90;66.40;;;;;;5062319;28;21000;-80
2021/07/25 05:02:16;;;;;;;13.93;10.88;;;18.90;66.50;;;;;;5046770;28;20271;-80
2021/07/25 05:04:42;;;;;;;11.73;10.50;;;18.90;66.40;;;;;;5080152;28;20028;-79
2021/07/25 05:07:12;;;;;;;12.88;10.25;;;18.90;66.40;;;;;;5081456;28;20031;-79
2021/07/25 05:09:40;;;;;;;11.60;10.40;;;18.90;66.50;;;;;;5065981;28;20033;-80
2021/07/25 05:12:16;;;;;;;13.52;11.43;;;18.90;66.50;;;;;;5065036;28;20035;-80
2021/07/25 05:14:57;;;;;;;12.10;10.10;;;18.80;66.30;;;;;;5054622;28;20102;-79
2021/07/25 05:17:36;;;;;;;11.80;10.68;;;18.90;66.50;;;;;;5063505;28;20028;-79
2021/07/25 05:20:04;;;;;;;12.52;10.70;;;18.90;66.50;;;;;;5065168;28;20028;-78
2021/07/25 05:22:57;;;;;;;11.63;10.55;;;18.90;66.40;;;;;;5065678;28;20047;-79
2021/07/25 05:25:24;;;;;;;13.73;11.35;;;18.80;66.40;;;;;;5068085;28;20430;-80
2021/07/25 05:27:53;;;;;;;13.20;10.90;;;18.90;66.40;;;;;;5084801;28;20052;-81
2021/07/25 05:30:22;;;;;;;11.63;10.63;;;18.90;66.40;;;;;;5069253;28;20028;-79
2021/07/25 05:32:48;;;;;;;13.45;10.55;;;18.90;66.40;;;;;;5067134;28;20086;-82
2021/07/25 05:35:15;;;;;;;14.35;11.25;;;18.90;66.40;;;;;;5055344;28;20612;-80
2021/07/25 05:37:41;;;;;;;13.13;11.70;;;18.90;66.40;;;;;;5064636;28;20029;-79
2021/07/25 05:40:08;;;;;;;12.43;11.02;;;18.90;66.40;;;;;;5067812;28;20036;-80
2021/07/25 05:42:35;;;;;;;12.57;11.35;;;18.90;66.50;;;;;;5068974;28;20024;-80
2021/07/25 05:45:01;;;;;;;12.25;11.05;;;18.80;66.20;;;;;;5067764;28;20033;-79
2021/07/25 05:47:27;;;;;;;14.20;12.70;;;18.90;66.40;;;;;;5068521;28;20020;-79
2021/07/25 05:49:53;;;;;;;16.98;12.02;;;18.90;66.40;;;;;;5068097;28;20037;-79
2021/07/25 05:52:19;;;;;;;12.55;10.73;;;18.90;66.40;;;;;;5068652;28;20040;-79
2021/07/25 05:54:45;;;;;;;13.63;10.30;;;18.90;66.40;;;;;;5068103;28;20040;-80
2021/07/25 05:57:11;;;;;;;13.25;11.63;;;18.90;66.40;;;;;;5063712;28;20021;-82
2021/07/25 05:59:37;;;;;;;14.30;11.77;;;18.90;66.40;;;;;;5068464;28;20036;-79
2021/07/25 06:02:03;;;;;;;13.27;11.88;;;18.90;66.40;;;;;;5053859;28;20033;-82
2021/07/25 06:04:30;;;;;;;15.35;11.98;;;18.90;66.40;;;;;;5067632;28;20066;-78
2021/07/25 06:06:56;;;;;;;21.35;16.13;;;18.90;66.50;;;;;;5067451;28;20508;-82
2021/07/25 06:09:23;;;;;;;20.20;15.80;;;18.90;66.70;;;;;;5067954;28;20044;-80
2021/07/25 06:11:50;;;;;;;18.85;15.10;;;19.00;67.00;;;;;;5060523;28;20378;-81
2021/07/25 06:14:16;;;;;;;24.13;16.40;;;19.00;67.10;;;;;;5052578;28;20041;-83
2021/07/25 06:16:42;;;;;;;20.90;16.20;;;19.00;67.20;;;;;;5063639;28;20036;-84
2021/07/25 06:19:08;;;;;;;21.55;16.00;;;19.00;67.30;;;;;;5064459;28;20032;-80
2021/07/25 06:21:34;;;;;;;23.13;16.27;;;19.00;67.40;;;;;;5066859;28;20379;-81
2021/07/25 06:24:00;;;;;;;24.27;17.75;;;19.10;67.60;;;;;;5067340;28;20637;-82
2021/07/25 06:26:26;;;;;;;20.20;17.83;;;19.10;67.80;;;;;;5060053;28;20031;-80
2021/07/25 06:28:53;;;;;;;22.17;17.70;;;19.10;67.90;;;;;;5056263;28;20041;-81
2021/07/25 06:31:19;;;;;;;21.63;18.02;;;19.10;68.00;;;;;;5065722;28;20039;-79
2021/07/25 06:33:45;;;;;;;19.77;17.17;;;19.10;68.00;;;;;;5062932;28;20036;-83
2021/07/25 06:36:12;;;;;;;21.38;18.27;;;19.10;68.10;;;;;;5056597;28;20642;-82
2021/07/25 06:38:39;;;;;;;22.35;16.88;;;19.10;68.30;;;;;;5067898;28;20064;-81
2021/07/25 06:41:06;;;;;;;24.02;18.70;;;19.10;68.30;;;;;;5063418;28;20544;-83
2021/07/25 06:43:32;;;;;;;22.83;16.90;;;19.10;68.20;;;;;;5075645;28;20036;-78
2021/07/25 06:45:58;;;;;;;27.50;17.55;;;19.10;68.30;;;;;;5065949;28;20056;-80
2021/07/25 06:48:27;;;;;;;23.02;17.73;;;19.10;68.30;;;;;;5056327;28;20078;-81
2021/07/25 06:50:55;;;;;;;26.45;19.15;;;19.20;68.50;;;;;;5062420;28;20029;-80
2021/07/25 06:53:23;;;;;;;24.10;16.88;;;19.20;68.50;;;;;;5058338;28;20124;-81
2021/07/25 06:55:51;;;;;;;21.10;16.92;;;19.20;68.50;;;;;;5065770;28;20033;-82
2021/07/25 06:58:17;;;;;;;33.38;17.60;;;19.20;68.50;;;;;;5066683;28;20356;-83
2021/07/25 07:00:43;;;;;;;22.75;17.85;;;19.20;68.60;;;;;;5067332;28;20154;-80
2021/07/25 07:03:09;;;;;;;19.35;16.77;;;19.20;68.60;;;;;;5067402;28;20027;-82
2021/07/25 07:05:35;;;;;;;20.75;16.52;;;19.20;68.70;;;;;;5065801;28;20031;-79
2021/07/25 07:08:07;;;;;;;19.50;17.40;;;19.20;68.80;;;;;;5066710;28;20087;-79
2021/07/25 07:10:38;;;;;;;28.23;18.85;;;19.20;68.90;;;;;;5066539;28;20036;-79
2021/07/25 07:13:09;;;;;;;22.45;17.85;;;19.20;68.90;;;;;;5065386;28;20107;-79
2021/07/25 07:15:37;;;;;;;21.75;16.98;;;19.20;68.90;;;;;;5066700;28;20407;-80
2021/07/25 07:18:04;;;;;;;18.83;16.83;;;19.10;68.70;;;;;;5064998;28;20399;-80
2021/07/25 07:20:30;;;;;;;22.58;17.60;;;19.10;68.80;;;;;;5054498;28;20063;-79
2021/07/25 07:22:58;;;;;;;25.83;18.48;;;19.10;68.80;;;;;;5053764;28;20038;-78
2021/07/25 07:25:27;;;;;;;20.65;17.40;;;19.10;68.90;;;;;;5066698;28;20472;-78
2021/07/25 07:27:53;;;;;;;22.33;16.60;;;19.10;69.00;;;;;;5064824;28;20054;-79
2021/07/25 07:30:20;;;;;;;19.90;16.88;;;19.10;69.00;;;;;;5070721;28;20029;-80
2021/07/25 07:32:46;;;;;;;20.98;17.50;;;19.10;69.10;;;;;;5066164;28;20106;-79
2021/07/25 07:35:12;;;;;;;24.65;17.25;;;19.10;69.10;;;;;;5065991;28;20041;-78
2021/07/25 07:37:38;;;;;;;24.17;17.38;;;19.10;69.10;;;;;;5065830;28;20453;-79
2021/07/25 07:40:04;;;;;;;23.63;16.75;;;19.10;69.20;;;;;;5065969;28;20029;-79
2021/07/25 07:42:31;;;;;;;20.63;16.73;;;19.10;69.20;;;;;;5066359;28;20116;-78
2021/07/25 07:44:57;;;;;;;19.83;17.30;;;19.10;69.80;;;;;;5064755;28;20119;-78
2021/07/25 07:47:23;;;;;;;23.48;17.88;;;19.10;69.20;;;;;;5057413;28;20029;-78
2021/07/25 07:49:50;;;;;;;19.42;15.85;;;19.20;69.40;;;;;;5065207;28;20024;-77
2021/07/25 07:52:16;;;;;;;18.10;16.20;;;19.20;69.50;;;;;;5065974;28;20032;-77
2021/07/25 07:54:42;;;;;;;24.55;16.92;;;19.20;69.50;;;;;;5066742;28;20304;-78
2021/07/25 07:57:08;;;;;;;20.42;17.25;;;19.30;69.70;;;;;;5065293;28;20067;-79
2021/07/25 07:59:35;;;;;;;18.00;16.30;;;19.30;69.70;;;;;;5065241;28;20039;-77
2021/07/25 08:02:01;;;;;;;23.08;17.20;;;19.30;69.60;;;;;;5066115;28;20033;-79
2021/07/25 08:04:27;;;;;;;17.83;15.50;;;19.40;69.80;;;;;;5065583;28;20036;-80
2021/07/25 08:06:53;;;;;;;18.98;16.25;;;19.30;69.60;;;;;;5064989;28;20025;-76
2021/07/25 08:09:19;;;;;;;16.55;13.75;;;19.40;69.80;;;;;;5065681;28;20052;-76
2021/07/25 08:11:45;;;;;;;19.08;14.50;;;19.40;69.80;;;;;;5065857;28;20020;-79
2021/07/25 08:14:19;;;;;;;19.85;16.40;;;19.40;69.80;;;;;;5065585;28;20095;-77
2021/07/25 08:16:46;;;;;;;18.35;15.20;;;19.40;69.80;;;;;;5066430;28;20325;-77
2021/07/25 08:19:13;;;;;;;21.58;14.27;;;19.30;69.50;;;;;;5064346;28;20528;-77
2021/07/25 08:21:40;;;;;;;15.50;13.88;;;19.30;69.40;;;;;;5065500;28;20032;-78
2021/07/25 08:24:07;;;;;;;18.90;14.57;;;19.40;69.60;;;;;;5065776;28;20033;-78
2021/07/25 08:26:33;;;;;;;19.02;14.05;;;19.40;69.60;;;;;;5066389;28;20494;-78
2021/07/25 08:29:01;;;;;;;23.25;15.63;;;19.30;69.40;;;;;;5064674;28;20119;-77
2021/07/25 08:31:27;;;;;;;19.05;14.68;;;19.30;69.40;;;;;;5061023;28;20021;-75
2021/07/25 08:33:53;;;;;;;17.40;14.65;;;19.30;69.40;;;;;;5062418;28;20147;-77
2021/07/25 08:36:19;;;;;;;21.02;14.70;;;19.30;69.40;;;;;;5066049;28;20037;-79
2021/07/25 08:38:45;;;;;;;18.30;14.80;;;19.40;69.50;;;;;;5065742;28;20028;-77
2021/07/25 08:41:14;;;;;;;19.42;14.60;;;19.40;69.40;;;;;;5065832;28;20039;-78
2021/07/25 08:43:43;;;;;;;17.50;14.38;;;19.40;69.50;;;;;;5065684;28;20032;-76
2021/07/25 08:46:15;;;;;;;16.83;14.93;;;19.40;69.50;;;;;;5064084;28;20046;-77
2021/07/25 08:48:50;;;;;;;18.27;15.52;;;19.40;69.50;;;;;;5064649;28;20025;-78
2021/07/25 08:51:25;;;;;;;16.67;14.95;;;19.40;69.50;;;;;;5065813;28;20024;-78
2021/07/25 08:54:03;;;;;;;18.02;15.05;;;19.40;69.90;;;;;;5065222;28;20291;-77
2021/07/25 08:56:31;;;;;;;26.52;16.85;;;19.50;69.60;;;;;;5065254;28;20415;-78
2021/07/25 08:59:00;;;;;;;21.85;16.40;;;19.50;69.40;;;;;;5066681;28;20066;-80
2021/07/25 09:01:38;;;;;;;23.90;17.20;;;19.50;69.40;;;;;;5069680;28;20060;-80
2021/07/25 09:04:05;;;;;;;20.38;16.23;;;19.50;69.50;;;;;;5042078;28;20451;-79
2021/07/25 09:06:43;;;;;;;20.05;17.95;;;19.60;69.60;;;;;;5061011;28;20028;-76
2021/07/25 09:09:10;;;;;;;19.98;17.85;;;19.60;69.50;;;;;;5039643;28;20048;-75
2021/07/25 09:11:36;;;;;;;26.30;18.38;;;19.70;69.60;;;;;;5058078;28;20086;-78
2021/07/25 09:14:06;;;;;;;21.38;18.45;;;19.70;69.60;;;;;;5056939;28;20060;-82
2021/07/25 09:16:34;;;;;;;22.95;17.92;;;19.70;69.60;;;;;;5060057;28;20052;-78
2021/07/25 09:19:01;;;;;;;19.55;17.10;;;19.70;69.70;;;;;;5062413;28;20029;-79
2021/07/25 09:21:43;;;;;;;21.00;18.20;;;19.80;69.90;;;;;;5058248;28;20036;-75
2021/07/25 09:24:21;;;;;;;20.95;18.55;;;19.80;70.00;;;;;;5058702;28;20020;-75
2021/07/25 09:27:04;;;;;;;22.80;19.67;;;19.80;70.00;;;;;;5064266;28;20025;-75
2021/07/25 09:29:34;;;;;;;18.92;17.00;;;19.90;70.10;;;;;;5066786;28;20155;-75
2021/07/25 09:32:17;;;;;;;18.55;16.75;;;19.90;70.00;;;;;;5050803;28;20442;-76
2021/07/25 09:34:43;;;;;;;19.42;16.40;;;19.90;70.00;;;;;;5067319;28;20032;-76
2021/07/25 09:37:17;;;;;;;21.85;16.27;;;20.00;70.10;;;;;;5068922;28;20021;-77
2021/07/25 09:39:46;;;;;;;20.88;16.63;;;20.00;70.00;;;;;;5068059;28;20053;-76
2021/07/25 09:42:13;;;;;;;23.63;15.82;;;20.10;70.10;;;;;;5059741;28;20090;-78
2021/07/25 09:44:48;;;;;;;19.85;16.48;;;20.20;70.10;;;;;;5065185;28;20029;-75
2021/07/25 09:47:34;;;;;;;16.02;14.52;;;20.20;70.00;;;;;;5049340;28;20350;-80
2021/07/25 09:50:02;;;;;;;16.95;15.23;;;20.40;70.30;;;;;;5055950;28;20040;-78
2021/07/25 09:52:39;;;;;;;20.77;15.32;;;20.50;70.20;;;;;;5067435;28;20473;-83
2021/07/25 09:55:09;;;;;;;19.25;15.05;;;20.60;70.30;;;;;;5056156;28;20124;-79
2021/07/25 09:57:36;;;;;;;23.02;15.95;;;20.60;70.20;;;;;;5067996;28;20112;-79
2021/07/25 10:00:11;;;;;;;18.02;16.02;;;20.70;70.20;;;;;;5051166;28;20037;-79
2021/07/25 10:02:49;;;;;;;16.63;15.02;;;20.80;70.30;;;;;;5051931;28;20033;-79
2021/07/25 10:05:17;;;;;;;17.45;15.27;;;20.80;70.10;;;;;;5066921;28;20491;-81
2021/07/25 10:07:44;;;;;;;15.25;13.65;;;20.90;70.20;;;;;;5068244;28;20091;-81
2021/07/25 10:10:13;;;;;;;16.45;14.75;;;20.90;70.10;;;;;;5066882;28;20075;-82
2021/07/25 10:12:41;;;;;;;19.10;14.90;;;20.90;70.00;;;;;;5067717;28;20037;-82
2021/07/25 10:15:16;;;;;;;15.93;13.40;;;21.00;70.10;;;;;;5050084;28;20048;-84
2021/07/25 10:17:44;;;;;;;16.60;13.77;;;21.00;70.00;;;;;;5084006;28;20113;-84
2021/07/25 10:20:16;;;;;;;15.68;12.57;;;21.10;70.00;;;;;;5051158;28;20036;-82
2021/07/25 10:22:46;;;;;;;14.65;13.27;;;21.10;70.00;;;;;;5049789;28;20350;-81
2021/07/25 10:25:15;;;;;;;19.27;13.68;;;21.10;69.90;;;;;;5067153;28;20194;-81
2021/07/25 10:27:45;;;;;;;15.18;13.55;;;21.10;69.80;;;;;;5067768;28;20036;-83
2021/07/25 10:30:12;;;;;;;14.43;13.02;;;21.10;69.70;;;;;;5068105;28;20033;-84
2021/07/25 10:32:39;;;;;;;14.70;13.13;;;21.20;69.80;;;;;;5066390;28;20036;-84
2021/07/25 10:35:10;;;;;;;14.88;13.40;;;21.20;69.80;;;;;;5061521;28;20052;-84
2021/07/25 10:37:38;;;;;;;15.20;13.63;;;21.20;69.70;;;;;;5058915;28;20036;-81
2021/07/25 10:40:06;;;;;;;37.55;34.20;;;21.30;69.80;;;;;;5067708;28;20036;-86
2021/07/25 10:42:44;;;;;;;27.13;24.77;;;21.20;69.60;;;;;;5066917;28;20095;-83
2021/07/25 10:45:11;;;;;;;23.77;21.45;;;21.30;69.80;;;;;;5067709;28;20041;-82
2021/07/25 10:47:37;;;;;;;21.77;19.90;;;21.30;69.80;;;;;;5068063;28;20491;-82
2021/07/25 10:50:04;;;;;;;22.20;20.02;;;21.40;69.90;;;;;;5061506;28;20149;-82
2021/07/25 10:53:06;;;;;;;19.85;17.88;;;21.50;70.10;;;;;;5058469;28;20028;-81
2021/07/25 10:55:38;;;;;;;19.80;18.15;;;21.70;70.30;;;;;;5065628;28;20044;-80
2021/07/25 10:58:06;;;;;;;18.90;17.17;;;21.90;70.30;;;;;;5067522;28;20028;-82
2021/07/25 11:00:45;;;;;;;17.08;15.48;;;22.10;70.40;;;;;;5067233;28;20514;-84
2021/07/25 11:03:30;;;;;;;17.02;15.43;;;22.20;70.20;;;;;;5065521;28;20067;-80
2021/07/25 11:05:59;;;;;;;16.60;15.18;;;22.40;70.30;;;;;;5066833;28;20033;-83
2021/07/25 11:08:43;;;;;;;15.98;14.23;;;22.60;70.30;;;;;;5061729;28;20453;-82
2021/07/25 11:11:33;;;;;;;15.40;13.85;;;22.80;70.40;;;;;;5057447;28;20048;-80
2021/07/25 11:14:02;;;;;;;15.50;13.88;;;23.00;70.30;;;;;;5065546;28;20047;-82
2021/07/25 11:16:29;;;;;;;14.07;12.75;;;23.10;70.10;;;;;;5067034;28;20032;-82
2021/07/25 11:19:04;;;;;;;13.98;12.77;;;23.20;70.00;;;;;;5065684;28;20048;-82
2021/07/25 11:21:40;;;;;;;13.10;12.00;;;23.30;70.00;;;;;;5047852;28;20051;-80
2021/07/25 11:24:18;;;;;;;13.68;12.45;;;23.50;70.10;;;;;;5066360;28;20141;-81
2021/07/25 11:26:46;;;;;;;12.80;11.70;;;23.70;70.10;;;;;;5064343;28;20063;-80
2021/07/25 11:29:33;;;;;;;13.10;11.95;;;23.90;70.10;;;;;;5081935;28;20486;-80
2021/07/25 11:32:01;;;;;;;12.73;11.45;;;24.20;70.10;;;;;;5060103;28;20123;-81
2021/07/25 11:34:32;;;;;;;12.65;10.75;;;24.30;69.80;;;;;;5057719;28;20336;-82
2021/07/25 11:37:04;;;;;;;12.35;11.35;;;24.50;69.80;;;;;;5046203;28;20440;-83
2021/07/25 11:39:32;;;;;;;13.95;12.52;;;24.50;69.50;;;;;;5064153;28;20255;-81
2021/07/25 11:41:58;;;;;;;13.50;12.10;;;24.50;69.20;;;;;;5065234;28;20101;-82
2021/07/25 11:44:29;;;;;;;12.43;11.13;;;24.60;69.30;;;;;;5066800;28;20021;-87
2021/07/25 11:47:00;;;;;;;12.48;11.18;;;24.60;69.20;;;;;;5049619;28;20036;-83
2021/07/25 11:49:28;;;;;;;12.55;11.20;;;24.60;69.10;;;;;;5066144;28;20028;-83
2021/07/25 11:51:59;;;;;;;14.05;11.13;;;24.60;69.00;;;;;;5064533;28;20549;-82
2021/07/25 11:54:37;;;;;;;13.10;11.82;;;24.70;69.10;;;;;;5064776;28;20082;-82
2021/07/25 11:57:10;;;;;;;12.13;10.93;;;24.90;69.30;;;;;;5067068;28;20038;-82
2021/07/25 11:59:48;;;;;;;13.73;12.20;;;25.00;69.10;;;;;;5065098;28;20028;-82
2021/07/25 12:02:24;;;;;;;11.90;10.80;;;25.20;68.90;;;;;;5055797;28;20740;-81
2021/07/25 12:04:50;;;;;;;11.38;10.38;;;25.30;68.60;;;;;;5046576;28;20036;-82
2021/07/25 12:07:21;;;;;;;11.75;10.50;;;25.50;68.50;;;;;;5061608;28;20490;-81
2021/07/25 12:09:50;;;;;;;11.63;10.63;;;25.70;68.20;;;;;;5061473;28;20048;-80
2021/07/25 12:12:29;;;;;;;10.93;10.00;;;25.80;68.00;;;;;;5046097;28;20025;-81
2021/07/25 12:15:10;;;;;;;11.23;10.13;;;25.90;67.70;;;;;;5064948;28;20410;-81
2021/07/25 12:17:38;;;;;;;12.60;10.32;;;26.00;67.50;;;;;;5064557;28;20034;-82
2021/07/25 12:20:12;;;;;;;10.85;9.95;;;26.10;67.30;;;;;;5066066;28;20171;-84
2021/07/25 12:23:03;;;;;;;12.93;11.63;;;26.30;67.20;;;;;;5057919;28;20044;-82
2021/07/25 12:25:35;;;;;;;12.73;9.73;;;26.40;67.00;;;;;;5066216;28;20086;-82
2021/07/25 12:28:22;;;;;;;11.60;10.40;;;26.50;66.80;;;;;;5064973;28;20032;-84
2021/07/25 12:30:53;;;;;;;11.23;10.27;;;26.70;66.70;;;;;;5081397;28;20039;-84
2021/07/25 12:33:33;;;;;;;10.70;9.80;;;26.80;66.50;;;;;;5068645;28;20036;-83
2021/07/25 12:36:13;;;;;;;12.10;10.68;;;27.00;66.30;;;;;;5069937;28;20040;-83
2021/07/25 12:38:39;;;;;;;11.60;10.50;;;27.10;66.10;;;;;;5068338;28;20056;-81
2021/07/25 12:41:05;;;;;;;10.43;9.43;;;27.20;65.90;;;;;;5070296;28;20064;-82
2021/07/25 12:43:32;;;;;;;10.82;9.75;;;27.30;65.70;;;;;;5069799;28;20822;-82